sensor_id;sensor_type;location;lat;lon;timestamp;temperature;humidity
20315;DHT22;10315;50.958;13.080;2023-09-18T00:02:49;19.70;99.90
20315;DHT22;10315;50.958;13.080;2023-09-18T00:12:50;19.60;99.90
20315;DHT22;10315;50.958;13.080;2023-09-18T00:22:54;19.40;99.90
20315;DHT22;10315;50.958;13.080;2023-09-18T00:32:55;19.10;99.90
20315;DHT22;10315;50.958;13.080;2023-09-18T00:42:58;19.70;99.90
20315;DHT22;10315;50.958;13.080;2023-09-18T00:53:01;19.70;99.90
20315;DHT22;10315;50.958;13.080;2023-09-18T01:03:04;19.70;99.90
20315;DHT22;10315;50.958;13.080;2023-09-18T01:13:11;19.40;99.90
20315;DHT22;10315;50.958;13.080;2023-09-18T01:23:15;19.30;99.90
20315;DHT22;10315;50.958;13.080;2023-09-18T01:33:17;19.00;99.90
20315;DHT22;10315;50.958;13.080;2023-09-18T01:43:21;18.80;99.90
20315;DHT22;10315;50.958;13.080;2023-09-18T01:53:23;18.60;99.90
20315;DHT22;10315;50.958;13.080;2023-09-18T02:03:26;18.60;99.90
20315;DHT22;10315;50.958;13.080;2023-09-18T02:13:27;18.80;99.90
20315;DHT22;10315;50.958;13.080;2023-09-18T02:23:30;19.00;99.90
20315;DHT22;10315;50.958;13.080;2023-09-18T02:33:32;19.30;99.90
20315;DHT22;10315;50.958;13.080;2023-09-18T02:43:35;19.40;99.90
20315;DHT22;10315;50.958;13.080;2023-09-18T02:53:38;19.20;99.90
20315;DHT22;10315;50.958;13.080;2023-09-18T03:03:41;19.10;99.90
20315;DHT22;10315;50.958;13.080;2023-09-18T03:13:43;19.30;99.90
20315;DHT22;10315;50.958;13.080;2023-09-18T03:23:48;19.00;99.90
20315;DHT22;10315;50.958;13.080;2023-09-18T03:33:50;18.80;99.90
20315;DHT22;10315;50.958;13.080;2023-09-18T03:43:53;18.50;99.90
20315;DHT22;10315;50.958;13.080;2023-09-18T03:53:55;18.70;99.90
20315;DHT22;10315;50.958;13.080;2023-09-18T04:03:58;18.80;99.90
20315;DHT22;10315;50.958;13.080;2023-09-18T04:14:01;18.50;99.90
20315;DHT22;10315;50.958;13.080;2023-09-18T04:24:05;18.20;99.90
20315;DHT22;10315;50.958;13.080;2023-09-18T04:34:07;18.00;99.90
20315;DHT22;10315;50.958;13.080;2023-09-18T04:44:10;18.10;99.90
20315;DHT22;10315;50.958;13.080;2023-09-18T04:54:13;17.90;99.90
20315;DHT22;10315;50.958;13.080;2023-09-18T05:04:17;17.60;99.90
20315;DHT22;10315;50.958;13.080;2023-09-18T05:14:18;17.70;99.90
20315;DHT22;10315;50.958;13.080;2023-09-18T05:24:21;17.90;99.90
20315;DHT22;10315;50.958;13.080;2023-09-18T05:34:27;18.00;99.90
20315;DHT22;10315;50.958;13.080;2023-09-18T05:44:30;18.40;99.90
20315;DHT22;10315;50.958;13.080;2023-09-18T05:54:32;18.70;99.90
20315;DHT22;10315;50.958;13.080;2023-09-18T06:04:35;19.20;99.90
20315;DHT22;10315;50.958;13.080;2023-09-18T06:14:37;19.00;99.90
20315;DHT22;10315;50.958;13.080;2023-09-18T06:24:40;20.30;99.90
20315;DHT22;10315;50.958;13.080;2023-09-18T06:34:42;23.60;99.90
20315;DHT22;10315;50.958;13.080;2023-09-18T06:44:46;25.60;99.90
20315;DHT22;10315;50.958;13.080;2023-09-18T06:54:47;27.00;99.90
20315;DHT22;10315;50.958;13.080;2023-09-18T07:04:50;28.60;99.90
20315;DHT22;10315;50.958;13.080;2023-09-18T07:14:52;28.60;99.90
20315;DHT22;10315;50.958;13.080;2023-09-18T07:24:55;27.80;99.90
20315;DHT22;10315;50.958;13.080;2023-09-18T07:34:56;28.50;99.90
20315;DHT22;10315;50.958;13.080;2023-09-18T07:44:59;29.70;99.90
20315;DHT22;10315;50.958;13.080;2023-09-18T07:55:01;31.10;99.90
20315;DHT22;10315;50.958;13.080;2023-09-18T08:05:05;33.40;97.00
20315;DHT22;10315;50.958;13.080;2023-09-18T08:15:08;30.60;98.20
20315;DHT22;10315;50.958;13.080;2023-09-18T08:25:11;31.40;97.80
20315;DHT22;10315;50.958;13.080;2023-09-18T08:35:13;31.40;96.70
20315;DHT22;10315;50.958;13.080;2023-09-18T08:45:22;31.70;97.40
20315;DHT22;10315;50.958;13.080;2023-09-18T08:55:24;30.60;98.60
20315;DHT22;10315;50.958;13.080;2023-09-18T09:05:27;30.80;99.20
20315;DHT22;10315;50.958;13.080;2023-09-18T09:15:32;32.80;95.30
20315;DHT22;10315;50.958;13.080;2023-09-18T09:25:36;30.70;96.70
20315;DHT22;10315;50.958;13.080;2023-09-18T09:35:38;29.90;96.80
20315;DHT22;10315;50.958;13.080;2023-09-18T09:45:42;31.10;95.20
20315;DHT22;10315;50.958;13.080;2023-09-18T09:55:44;30.70;95.50
20315;DHT22;10315;50.958;13.080;2023-09-18T10:05:50;30.60;95.10
20315;DHT22;10315;50.958;13.080;2023-09-18T10:15:52;29.70;96.50
20315;DHT22;10315;50.958;13.080;2023-09-18T10:25:59;29.30;97.10
20315;DHT22;10315;50.958;13.080;2023-09-18T10:36:04;29.60;97.70
20315;DHT22;10315;50.958;13.080;2023-09-18T10:46:09;29.40;98.10
20315;DHT22;10315;50.958;13.080;2023-09-18T10:56:14;28.90;98.20
20315;DHT22;10315;50.958;13.080;2023-09-18T11:06:18;29.80;96.30
20315;DHT22;10315;50.958;13.080;2023-09-18T11:16:35;31.10;94.30
20315;DHT22;10315;50.958;13.080;2023-09-18T11:26:42;32.00;93.60
20315;DHT22;10315;50.958;13.080;2023-09-18T11:36:43;33.60;92.10
20315;DHT22;10315;50.958;13.080;2023-09-18T11:46:48;33.60;90.00
20315;DHT22;10315;50.958;13.080;2023-09-18T11:56:52;32.90;90.50
20315;DHT22;10315;50.958;13.080;2023-09-18T12:06:55;32.50;90.10
20315;DHT22;10315;50.958;13.080;2023-09-18T12:16:56;31.20;90.70
20315;DHT22;10315;50.958;13.080;2023-09-18T12:26:59;30.70;91.60
20315;DHT22;10315;50.958;13.080;2023-09-18T12:37:03;29.60;92.60
20315;DHT22;10315;50.958;13.080;2023-09-18T12:47:06;28.60;94.20
20315;DHT22;10315;50.958;13.080;2023-09-18T12:57:09;28.10;95.80
20315;DHT22;10315;50.958;13.080;2023-09-18T13:07:14;28.20;99.90
20315;DHT22;10315;50.958;13.080;2023-09-18T13:17:15;27.60;99.90
20315;DHT22;10315;50.958;13.080;2023-09-18T13:27:18;27.60;99.90
20315;DHT22;10315;50.958;13.080;2023-09-18T13:37:20;27.60;99.90
20315;DHT22;10315;50.958;13.080;2023-09-18T13:47:23;28.00;99.90
20315;DHT22;10315;50.958;13.080;2023-09-18T13:57:25;27.70;99.90
20315;DHT22;10315;50.958;13.080;2023-09-18T14:07:28;27.00;99.70
20315;DHT22;10315;50.958;13.080;2023-09-18T14:17:30;26.20;99.90
20315;DHT22;10315;50.958;13.080;2023-09-18T14:27:33;25.20;99.90
20315;DHT22;10315;50.958;13.080;2023-09-18T14:37:35;24.50;99.90
20315;DHT22;10315;50.958;13.080;2023-09-18T14:47:39;23.20;99.90
20315;DHT22;10315;50.958;13.080;2023-09-18T14:57:40;22.90;99.90
20315;DHT22;10315;50.958;13.080;2023-09-18T15:07:43;22.60;99.90
20315;DHT22;10315;50.958;13.080;2023-09-18T15:17:45;22.10;99.90
20315;DHT22;10315;50.958;13.080;2023-09-18T15:27:48;21.60;99.90
20315;DHT22;10315;50.958;13.080;2023-09-18T15:37:50;21.20;99.90
20315;DHT22;10315;50.958;13.080;2023-09-18T15:47:53;20.40;99.90
20315;DHT22;10315;50.958;13.080;2023-09-18T15:57:58;19.90;99.90
20315;DHT22;10315;50.958;13.080;2023-09-18T16:08:01;19.70;99.90
20315;DHT22;10315;50.958;13.080;2023-09-18T16:18:05;19.30;99.90
20315;DHT22;10315;50.958;13.080;2023-09-18T16:28:08;19.10;99.90
20315;DHT22;10315;50.958;13.080;2023-09-18T16:38:10;18.90;99.90
20315;DHT22;10315;50.958;13.080;2023-09-18T16:48:13;18.30;99.90
20315;DHT22;10315;50.958;13.080;2023-09-18T16:58:14;18.00;99.90
20315;DHT22;10315;50.958;13.080;2023-09-18T17:08:17;17.80;99.90
20315;DHT22;10315;50.958;13.080;2023-09-18T17:18:19;17.70;99.90
20315;DHT22;10315;50.958;13.080;2023-09-18T17:28:22;17.60;99.90
20315;DHT22;10315;50.958;13.080;2023-09-18T17:38:24;17.40;99.90
20315;DHT22;10315;50.958;13.080;2023-09-18T17:48:27;17.30;99.90
20315;DHT22;10315;50.958;13.080;2023-09-18T17:58:29;17.10;99.90
20315;DHT22;10315;50.958;13.080;2023-09-18T18:08:32;17.00;99.90
20315;DHT22;10315;50.958;13.080;2023-09-18T18:18:33;16.80;99.90
20315;DHT22;10315;50.958;13.080;2023-09-18T18:28:39;16.70;99.90
20315;DHT22;10315;50.958;13.080;2023-09-18T18:38:40;16.50;99.90
20315;DHT22;10315;50.958;13.080;2023-09-18T18:48:44;16.20;99.90
20315;DHT22;10315;50.958;13.080;2023-09-18T18:58:47;16.10;99.90
20315;DHT22;10315;50.958;13.080;2023-09-18T19:08:51;16.10;99.90
20315;DHT22;10315;50.958;13.080;2023-09-18T19:18:52;15.90;99.90
20315;DHT22;10315;50.958;13.080;2023-09-18T19:28:58;15.90;99.90
20315;DHT22;10315;50.958;13.080;2023-09-18T19:39:00;15.90;99.90
20315;DHT22;10315;50.958;13.080;2023-09-18T19:49:03;15.80;99.90
20315;DHT22;10315;50.958;13.080;2023-09-18T19:59:05;15.80;99.90
20315;DHT22;10315;50.958;13.080;2023-09-18T20:09:09;15.80;99.90
20315;DHT22;10315;50.958;13.080;2023-09-18T20:19:11;15.80;99.90
20315;DHT22;10315;50.958;13.080;2023-09-18T20:29:15;15.80;99.90
20315;DHT22;10315;50.958;13.080;2023-09-18T20:39:18;15.80;99.90
20315;DHT22;10315;50.958;13.080;2023-09-18T20:49:21;15.50;99.90
20315;DHT22;10315;50.958;13.080;2023-09-18T20:59:24;15.50;99.90
20315;DHT22;10315;50.958;13.080;2023-09-18T21:09:28;15.40;99.90
20315;DHT22;10315;50.958;13.080;2023-09-18T21:19:30;15.30;99.90
20315;DHT22;10315;50.958;13.080;2023-09-18T21:29:33;15.20;99.90
20315;DHT22;10315;50.958;13.080;2023-09-18T21:39:35;15.20;99.90
20315;DHT22;10315;50.958;13.080;2023-09-18T21:49:38;15.10;99.90
20315;DHT22;10315;50.958;13.080;2023-09-18T21:59:44;15.20;99.90
20315;DHT22;10315;50.958;13.080;2023-09-18T22:09:47;15.00;99.90
20315;DHT22;10315;50.958;13.080;2023-09-18T22:19:52;15.00;99.90
20315;DHT22;10315;50.958;13.080;2023-09-18T22:29:55;15.00;99.90
20315;DHT22;10315;50.958;13.080;2023-09-18T23:00:45;15.20;99.90
20315;DHT22;10315;50.958;13.080;2023-09-18T23:10:48;15.30;99.90
20315;DHT22;10315;50.958;13.080;2023-09-18T23:20:51;15.20;99.90
20315;DHT22;10315;50.958;13.080;2023-09-18T23:30:55;15.20;99.90
20315;DHT22;10315;50.958;13.080;2023-09-18T23:41:00;15.10;99.90
20315;DHT22;10315;50.958;13.080;2023-09-18T23:51:05;15.20;99.90
